createdAt,value
2022-10-08T00:01:32.220Z,19.33
2022-10-08T00:04:00.678Z,18.73
2022-10-08T00:06:31.033Z,17.67
2022-10-08T00:09:02.432Z,20.17
2022-10-08T00:11:34.587Z,23.30
2022-10-08T00:14:03.481Z,23.15
2022-10-08T00:16:33.462Z,21.48
2022-10-08T00:19:03.896Z,23.63
2022-10-08T00:21:34.138Z,24.10
2022-10-08T00:24:02.987Z,21.63
2022-10-08T00:26:32.432Z,20.40
2022-10-08T00:29:04.288Z,18.90
2022-10-08T00:31:34.188Z,17.45
2022-10-08T00:34:06.957Z,16.60
2022-10-08T00:36:36.569Z,14.75
2022-10-08T00:39:07.229Z,13.77
2022-10-08T00:41:38.339Z,13.93
2022-10-08T00:44:39.997Z,15.43
2022-10-08T00:47:16.093Z,15.20
2022-10-08T00:49:45.001Z,16.88
2022-10-08T00:52:13.096Z,17.95
2022-10-08T00:54:41.303Z,16.50
2022-10-08T00:57:10.189Z,15.40
2022-10-08T00:59:38.603Z,14.77
2022-10-08T01:02:08.488Z,13.85
2022-10-08T01:04:39.053Z,13.68
2022-10-08T01:07:14.158Z,13.10
2022-10-08T01:09:47.181Z,13.40
2022-10-08T01:12:24.063Z,13.95
2022-10-08T01:14:57.649Z,13.93
2022-10-08T01:17:31.520Z,12.90
2022-10-08T01:20:16.951Z,13.43
2022-10-08T01:22:58.533Z,15.95
2022-10-08T01:25:35.805Z,15.75
2022-10-08T01:28:12.708Z,14.68
2022-10-08T01:30:43.200Z,13.65
2022-10-08T01:33:14.141Z,14.02
2022-10-08T01:35:45.357Z,13.95
2022-10-08T01:38:16.515Z,14.95
2022-10-08T01:43:17.148Z,17.88
2022-10-08T01:45:48.677Z,16.08
2022-10-08T01:50:50.433Z,17.63
2022-10-08T01:53:19.116Z,16.10
2022-10-08T01:55:50.225Z,14.63
2022-10-08T01:58:22.157Z,13.55
2022-10-08T02:00:51.502Z,12.93
2022-10-08T02:03:19.622Z,13.52
2022-10-08T02:05:51.380Z,12.70
2022-10-08T02:08:20.044Z,12.35
2022-10-08T02:10:48.251Z,12.77
2022-10-08T02:13:16.637Z,13.30
2022-10-08T02:15:53.213Z,12.20
2022-10-08T02:18:24.602Z,16.00
2022-10-08T02:20:56.562Z,16.73
2022-10-08T02:23:26.788Z,17.90
2022-10-08T02:25:58.181Z,17.08
2022-10-08T02:28:32.018Z,17.15
2022-10-08T02:31:07.041Z,18.73
2022-10-08T02:33:38.950Z,21.40
2022-10-08T02:36:09.612Z,18.63
2022-10-08T02:38:39.600Z,18.65
2022-10-08T02:41:09.033Z,20.70
2022-10-08T02:43:39.744Z,20.63
2022-10-08T02:46:12.972Z,22.23
2022-10-08T02:48:42.530Z,18.75
2022-10-08T02:51:14.013Z,20.30
2022-10-08T02:53:43.100Z,19.30
2022-10-08T02:56:16.448Z,19.23
2022-10-08T02:58:45.886Z,19.33
2022-10-08T03:01:18.648Z,18.08
2022-10-08T03:03:50.417Z,19.42
2022-10-08T03:06:19.452Z,20.92
2022-10-08T03:08:50.205Z,21.23
2022-10-08T03:11:18.575Z,21.50
2022-10-08T03:13:48.234Z,19.33
2022-10-08T03:16:23.472Z,18.47
2022-10-08T03:18:52.392Z,19.10
2022-10-08T03:21:20.737Z,19.42
2022-10-08T03:23:49.094Z,18.42
2022-10-08T03:26:18.290Z,21.45
2022-10-08T03:28:46.831Z,20.58
2022-10-08T03:31:14.975Z,21.52
2022-10-08T03:33:44.615Z,20.88
2022-10-08T03:36:12.958Z,21.55
2022-10-08T03:38:41.060Z,19.88
2022-10-08T03:41:09.824Z,23.67
2022-10-08T03:43:38.091Z,20.10
2022-10-08T03:46:06.715Z,18.42
2022-10-08T03:48:35.455Z,17.52
2022-10-08T03:51:07.903Z,15.00
2022-10-08T03:53:38.233Z,15.48
2022-10-08T03:56:08.430Z,19.70
2022-10-08T03:58:36.856Z,24.90
2022-10-08T04:01:07.204Z,21.33
2022-10-08T04:03:36.094Z,19.73
2022-10-08T04:06:05.732Z,19.10
2022-10-08T04:08:34.817Z,18.60
2022-10-08T04:11:04.904Z,17.58
2022-10-08T04:13:33.488Z,20.70
2022-10-08T04:16:02.665Z,19.40
2022-10-08T04:18:31.352Z,20.67
2022-10-08T04:20:59.894Z,18.67
2022-10-08T04:23:30.244Z,21.30
2022-10-08T04:25:58.556Z,21.20
2022-10-08T04:28:26.749Z,22.55
2022-10-08T04:30:59.500Z,19.58
2022-10-08T04:33:28.543Z,16.00
2022-10-08T04:36:00.101Z,15.20
2022-10-08T04:38:30.225Z,14.57
2022-10-08T04:41:06.564Z,13.73
2022-10-08T04:43:35.195Z,19.83
2022-10-08T04:46:03.753Z,19.17
2022-10-08T04:48:32.091Z,17.70
2022-10-08T04:51:04.884Z,17.40
2022-10-08T04:53:36.994Z,17.48
2022-10-08T04:56:10.000Z,19.05
2022-10-08T04:58:38.435Z,20.00
2022-10-08T05:01:08.632Z,19.98
2022-10-08T05:03:38.376Z,19.27
2022-10-08T05:06:07.026Z,19.77
2022-10-08T05:08:37.285Z,20.65
2022-10-08T05:11:05.827Z,20.45
2022-10-08T05:13:34.571Z,19.02
2022-10-08T05:16:06.662Z,18.88
2022-10-08T05:18:35.440Z,18.10
2022-10-08T05:21:05.235Z,18.38
2022-10-08T05:23:33.802Z,19.05
2022-10-08T05:26:03.493Z,18.13
2022-10-08T05:28:32.108Z,17.48
2022-10-08T05:31:01.654Z,17.02
2022-10-08T05:33:30.093Z,17.52
2022-10-08T05:35:58.401Z,18.00
2022-10-08T05:38:30.261Z,16.50
2022-10-08T05:41:11.669Z,16.60
2022-10-08T05:43:40.295Z,15.43
2022-10-08T05:46:08.725Z,15.57
2022-10-08T05:48:37.157Z,14.43
2022-10-08T05:51:06.533Z,14.98
2022-10-08T05:53:36.819Z,14.45
2022-10-08T05:56:06.357Z,13.45
2022-10-08T05:58:37.535Z,13.23
2022-10-08T06:01:07.821Z,15.43
2022-10-08T06:03:36.145Z,16.33
2022-10-08T06:06:06.090Z,16.10
2022-10-08T06:08:35.240Z,16.73
2022-10-08T06:11:03.550Z,17.27
2022-10-08T06:13:32.308Z,17.05
2022-10-08T06:16:03.802Z,14.85
2022-10-08T06:21:03.585Z,14.30
2022-10-08T06:23:33.547Z,18.08
2022-10-08T06:26:03.620Z,16.58
2022-10-08T06:28:31.977Z,15.73
2022-10-08T06:31:01.891Z,14.93
2022-10-08T06:33:30.891Z,14.73
2022-10-08T06:36:03.897Z,17.80
2022-10-08T06:38:32.298Z,13.55
2022-10-08T06:41:00.570Z,12.55
2022-10-08T06:43:28.969Z,14.13
2022-10-08T06:46:00.005Z,14.15
2022-10-08T06:48:29.469Z,13.57
2022-10-08T06:51:01.235Z,13.13
2022-10-08T06:53:29.654Z,13.15
2022-10-08T06:55:58.845Z,12.57
2022-10-08T06:58:26.984Z,12.68
2022-10-08T07:01:03.509Z,11.73
2022-10-08T07:03:33.316Z,11.35
2022-10-08T07:06:02.168Z,10.70
2022-10-08T07:08:30.733Z,10.35
2022-10-08T07:11:04.757Z,9.80
2022-10-08T07:13:33.815Z,9.18
2022-10-08T07:16:03.716Z,8.98
2022-10-08T07:18:34.589Z,8.18
2022-10-08T07:21:03.181Z,8.18
2022-10-08T07:23:32.275Z,9.60
2022-10-08T07:26:01.697Z,8.43
2022-10-08T07:28:32.115Z,9.13
2022-10-08T07:31:04.783Z,8.98
2022-10-08T07:33:34.591Z,8.05
2022-10-08T07:36:14.458Z,6.95
2022-10-08T07:38:43.145Z,6.30
2022-10-08T07:41:12.689Z,6.60
2022-10-08T07:43:41.469Z,5.22
2022-10-08T07:46:10.268Z,4.32
2022-10-08T07:48:40.082Z,4.30
2022-10-08T07:51:12.786Z,4.18
2022-10-08T07:53:41.860Z,4.28
2022-10-08T07:56:11.680Z,4.05
2022-10-08T07:58:40.530Z,4.35
2022-10-08T08:01:11.112Z,3.95
2022-10-08T08:03:40.518Z,3.63
2022-10-08T08:06:10.838Z,3.95
2022-10-08T08:08:40.915Z,4.95
2022-10-08T08:11:10.781Z,4.27
2022-10-08T08:13:41.287Z,4.33
2022-10-08T08:18:41.226Z,4.53
2022-10-08T08:21:11.069Z,4.78
2022-10-08T08:23:41.005Z,4.75
2022-10-08T08:26:11.361Z,5.47
2022-10-08T08:28:39.652Z,4.72
2022-10-08T08:31:10.361Z,4.90
2022-10-08T08:33:40.004Z,4.68
2022-10-08T08:36:08.796Z,5.35
2022-10-08T08:38:37.882Z,5.25
2022-10-08T08:41:20.438Z,19.83
2022-10-08T08:43:49.328Z,11.07
2022-10-08T08:46:20.744Z,6.65
2022-10-08T08:48:53.134Z,7.40
2022-10-08T08:51:21.288Z,6.65
2022-10-08T08:53:49.568Z,6.13
2022-10-08T08:56:21.216Z,6.82
2022-10-08T08:58:52.797Z,6.47
2022-10-08T09:01:26.184Z,6.50
2022-10-08T09:03:58.210Z,6.68
2022-10-08T09:06:27.113Z,7.72
2022-10-08T09:08:57.974Z,7.00
2022-10-08T09:11:26.626Z,6.82
2022-10-08T09:13:57.758Z,7.80
2022-10-08T09:16:28.551Z,6.00
2022-10-08T09:18:58.095Z,5.55
2022-10-08T09:21:26.664Z,5.38
2022-10-08T09:23:54.851Z,7.82
2022-10-08T09:26:24.393Z,5.25
2022-10-08T09:28:54.767Z,5.28
2022-10-08T09:31:26.682Z,5.00
2022-10-08T09:33:59.554Z,5.10
2022-10-08T09:36:32.843Z,5.15
2022-10-08T09:39:01.750Z,5.45
2022-10-08T09:41:30.379Z,5.45
2022-10-08T09:44:20.222Z,5.72
2022-10-08T09:46:49.470Z,6.35
2022-10-08T09:49:32.364Z,6.95
2022-10-08T09:52:02.978Z,6.15
2022-10-08T09:54:36.440Z,6.07
2022-10-08T09:57:05.013Z,6.32
2022-10-08T09:59:39.637Z,6.07
2022-10-08T10:02:29.262Z,6.38
2022-10-08T10:05:00.092Z,6.32
2022-10-08T10:07:38.664Z,7.28
2022-10-08T10:10:13.699Z,7.15
2022-10-08T10:12:45.231Z,7.28
2022-10-08T10:15:16.703Z,6.68
2022-10-08T10:17:48.360Z,7.72
2022-10-08T10:20:22.078Z,7.60
2022-10-08T10:22:53.827Z,6.97
2022-10-08T10:25:30.672Z,7.93
2022-10-08T10:28:01.839Z,8.05
2022-10-08T10:30:30.544Z,7.50
2022-10-08T10:33:01.895Z,8.38
2022-10-08T10:35:32.806Z,7.32
2022-10-08T10:40:38.260Z,7.03
2022-10-08T10:43:21.904Z,7.78
2022-10-08T10:45:55.236Z,6.10
2022-10-08T10:48:23.642Z,7.00
2022-10-08T10:51:09.834Z,6.63
2022-10-08T10:53:44.691Z,5.97
2022-10-08T10:56:15.884Z,6.60
2022-10-08T10:59:06.899Z,7.00
2022-10-08T11:01:41.232Z,6.57
2022-10-08T11:04:11.701Z,6.53
2022-10-08T11:07:02.094Z,6.50
2022-10-08T11:09:36.927Z,6.63
2022-10-08T11:12:16.293Z,6.63
2022-10-08T11:14:53.566Z,6.82
2022-10-08T11:17:33.208Z,6.18
2022-10-08T11:20:17.735Z,6.15
2022-10-08T11:22:52.199Z,6.40
2022-10-08T11:25:25.377Z,5.47
2022-10-08T11:28:03.855Z,6.63
2022-10-08T11:30:37.846Z,6.18
2022-10-08T11:33:06.837Z,5.65
2022-10-08T11:35:41.008Z,5.72
2022-10-08T11:38:16.255Z,6.53
2022-10-08T11:40:48.533Z,5.60
2022-10-08T11:43:23.903Z,5.35
2022-10-08T11:46:14.632Z,5.72
2022-10-08T11:48:42.814Z,6.10
2022-10-08T11:51:31.919Z,5.90
2022-10-08T11:54:19.460Z,6.10
2022-10-08T11:56:48.918Z,5.97
2022-10-08T11:59:31.144Z,5.47
2022-10-08T12:02:01.972Z,5.47
2022-10-08T12:04:33.150Z,7.00
2022-10-08T12:10:25.777Z,5.82
2022-10-08T12:13:07.201Z,5.72
2022-10-08T12:16:05.054Z,6.35
2022-10-08T12:18:43.884Z,6.05
2022-10-08T12:21:54.543Z,8.55
2022-10-08T12:24:53.449Z,7.13
2022-10-08T12:27:28.813Z,6.55
2022-10-08T12:29:58.688Z,6.60
2022-10-08T12:32:27.974Z,7.03
2022-10-08T12:34:56.434Z,6.20
2022-10-08T12:37:57.277Z,7.32
2022-10-08T12:40:33.740Z,6.60
2022-10-08T12:43:14.020Z,6.68
2022-10-08T12:45:48.973Z,8.50
2022-10-08T12:48:24.036Z,7.68
2022-10-08T12:50:59.472Z,7.13
2022-10-08T12:53:27.754Z,6.88
2022-10-08T12:55:58.027Z,7.40
2022-10-08T12:58:30.760Z,6.07
2022-10-08T13:01:01.843Z,5.63
2022-10-08T13:03:30.146Z,7.38
2022-10-08T13:05:58.304Z,7.10
2022-10-08T13:08:35.046Z,6.88
2022-10-08T13:11:05.386Z,7.57
2022-10-08T13:13:42.435Z,7.68
2022-10-08T13:16:12.865Z,7.05
2022-10-08T13:18:43.552Z,6.78
2022-10-08T13:21:39.095Z,7.10
2022-10-08T13:24:33.710Z,6.70
2022-10-08T13:27:01.837Z,6.75
2022-10-08T13:29:33.764Z,7.07
2022-10-08T13:32:05.081Z,7.47
2022-10-08T13:34:35.473Z,7.00
2022-10-08T13:37:05.799Z,8.23
2022-10-08T13:39:37.916Z,7.68
2022-10-08T13:42:08.354Z,8.27
2022-10-08T13:44:39.513Z,7.53
2022-10-08T13:47:10.022Z,7.20
2022-10-08T13:49:38.418Z,7.28
2022-10-08T13:52:06.544Z,7.07
2022-10-08T13:54:37.207Z,7.53
2022-10-08T13:57:08.651Z,7.53
2022-10-08T13:59:38.506Z,7.85
2022-10-08T14:02:07.291Z,7.80
2022-10-08T14:04:35.691Z,6.72
2022-10-08T14:07:04.259Z,7.53
2022-10-08T14:09:32.865Z,8.25
2022-10-08T14:12:05.192Z,8.10
2022-10-08T14:14:33.565Z,8.27
2022-10-08T14:17:03.116Z,7.45
2022-10-08T14:19:31.427Z,7.40
2022-10-08T14:21:59.582Z,7.35
2022-10-08T14:24:27.981Z,8.27
2022-10-08T14:26:56.304Z,7.35
2022-10-08T14:29:24.624Z,8.02
2022-10-08T14:31:52.813Z,9.13
2022-10-08T14:34:22.616Z,8.05
2022-10-08T14:36:55.228Z,8.07
2022-10-08T14:39:23.862Z,8.35
2022-10-08T14:41:51.985Z,8.30
2022-10-08T14:44:22.562Z,7.95
2022-10-08T14:46:53.029Z,7.97
2022-10-08T14:49:24.055Z,7.03
2022-10-08T14:51:52.419Z,8.60
2022-10-08T14:54:21.119Z,8.43
2022-10-08T14:56:49.373Z,8.35
2022-10-08T14:59:18.411Z,8.98
2022-10-08T15:01:46.870Z,9.30
2022-10-08T15:04:15.793Z,9.88
2022-10-08T15:06:45.786Z,8.90
2022-10-08T15:09:15.544Z,10.18
2022-10-08T15:11:43.717Z,10.15
2022-10-08T15:14:12.056Z,9.60
2022-10-08T15:16:40.832Z,8.23
2022-10-08T15:19:09.470Z,9.75
2022-10-08T15:21:38.073Z,9.90
2022-10-08T15:24:08.096Z,9.88
2022-10-08T15:26:36.468Z,9.68
2022-10-08T15:29:04.889Z,9.18
2022-10-08T15:31:33.102Z,10.70
2022-10-08T15:34:01.860Z,10.45
2022-10-08T15:36:32.206Z,9.55
2022-10-08T15:39:01.524Z,10.43
2022-10-08T15:41:33.540Z,10.60
2022-10-08T15:44:09.914Z,9.05
2022-10-08T15:46:38.261Z,10.15
2022-10-08T15:49:07.080Z,11.07
2022-10-08T15:51:35.353Z,11.60
2022-10-08T15:54:04.435Z,11.60
2022-10-08T15:56:34.449Z,12.20
2022-10-08T15:59:02.986Z,10.88
2022-10-08T16:01:31.222Z,10.40
2022-10-08T16:04:00.250Z,11.88
2022-10-08T16:06:30.571Z,13.07
2022-10-08T16:08:59.239Z,12.25
2022-10-08T16:11:29.417Z,12.60
2022-10-08T16:14:00.903Z,11.80
2022-10-08T16:16:30.053Z,12.40
2022-10-08T16:18:59.867Z,12.55
2022-10-08T16:21:29.042Z,12.25
2022-10-08T16:23:57.893Z,11.48
2022-10-08T16:26:26.213Z,11.75
2022-10-08T16:28:56.156Z,12.15
2022-10-08T16:31:27.771Z,11.50
2022-10-08T16:36:24.974Z,13.48
2022-10-08T16:38:53.695Z,13.77
2022-10-08T16:41:23.692Z,12.25
2022-10-08T16:43:53.213Z,13.02
2022-10-08T16:46:24.580Z,12.38
2022-10-08T16:48:55.385Z,12.73
2022-10-08T16:51:24.386Z,11.98
2022-10-08T16:53:54.318Z,13.63
2022-10-08T16:56:24.002Z,14.52
2022-10-08T16:58:53.167Z,14.63
2022-10-08T17:01:21.702Z,13.50
2022-10-08T17:03:50.247Z,13.85
2022-10-08T17:06:21.714Z,14.15
2022-10-08T17:08:51.397Z,14.40
2022-10-08T17:11:20.783Z,14.32
2022-10-08T17:13:50.813Z,14.98
2022-10-08T17:16:21.015Z,15.20
2022-10-08T17:18:51.719Z,13.63
2022-10-08T17:21:21.450Z,14.73
2022-10-08T17:23:50.381Z,15.38
2022-10-08T17:26:20.636Z,15.35
2022-10-08T17:28:50.276Z,15.27
2022-10-08T17:31:20.596Z,15.98
2022-10-08T17:33:49.099Z,15.00
2022-10-08T17:36:19.401Z,16.30
2022-10-08T17:38:50.007Z,16.10
2022-10-08T17:41:20.175Z,17.15
2022-10-08T17:43:49.196Z,17.25
2022-10-08T17:46:19.242Z,21.27
2022-10-08T17:48:48.104Z,23.52
2022-10-08T17:51:17.714Z,19.45
2022-10-08T17:53:46.288Z,18.90
2022-10-08T17:56:16.963Z,17.73
2022-10-08T17:58:45.040Z,16.75
2022-10-08T18:01:15.210Z,18.77
2022-10-08T18:03:44.830Z,18.52
2022-10-08T18:06:13.576Z,18.55
2022-10-08T18:08:41.825Z,18.75
2022-10-08T18:11:12.170Z,18.98
2022-10-08T18:13:41.700Z,17.42
2022-10-08T18:16:12.352Z,18.58
2022-10-08T18:18:40.882Z,19.95
2022-10-08T18:21:10.023Z,18.85
2022-10-08T18:23:38.133Z,18.50
2022-10-08T18:26:11.015Z,18.63
2022-10-08T18:28:39.573Z,22.65
2022-10-08T18:31:10.988Z,20.73
2022-10-08T18:33:40.725Z,20.95
2022-10-08T18:36:11.024Z,20.52
2022-10-08T18:38:39.690Z,20.73
2022-10-08T18:41:12.230Z,18.98
2022-10-08T18:43:40.621Z,20.40
2022-10-08T18:46:10.563Z,20.88
2022-10-08T18:48:39.120Z,21.00
2022-10-08T18:51:09.322Z,20.55
2022-10-08T18:53:39.392Z,21.10
2022-10-08T18:56:10.422Z,19.98
2022-10-08T18:58:38.635Z,20.30
2022-10-08T19:01:07.998Z,21.30
2022-10-08T19:03:37.586Z,23.95
2022-10-08T19:06:08.053Z,23.67
2022-10-08T19:08:36.237Z,23.08
2022-10-08T19:11:10.497Z,24.50
2022-10-08T19:13:38.975Z,22.45
2022-10-08T19:16:13.313Z,24.17
2022-10-08T19:18:44.306Z,20.23
2022-10-08T19:21:14.221Z,21.23
2022-10-08T19:23:43.250Z,23.63
2022-10-08T19:26:11.517Z,21.38
2022-10-08T19:28:40.373Z,22.55
2022-10-08T19:31:16.426Z,21.35
2022-10-08T19:33:49.321Z,19.75
2022-10-08T19:36:17.905Z,21.10
2022-10-08T19:38:46.372Z,21.90
2022-10-08T19:41:14.802Z,21.63
2022-10-08T19:43:44.070Z,20.15
2022-10-08T19:46:12.550Z,21.38
2022-10-08T19:48:40.736Z,22.23
2022-10-08T19:51:11.923Z,21.23
2022-10-08T19:53:40.112Z,20.95
2022-10-08T19:56:09.848Z,22.02
2022-10-08T19:58:38.836Z,21.35
2022-10-08T20:01:10.166Z,21.17
2022-10-08T20:03:39.252Z,21.33
2022-10-08T20:06:10.799Z,21.60
2022-10-08T20:08:39.156Z,21.83
2022-10-08T20:11:09.864Z,22.75
2022-10-08T20:13:38.171Z,21.63
2022-10-08T20:16:07.526Z,22.25
2022-10-08T20:18:36.222Z,22.77
2022-10-08T20:21:06.620Z,20.70
2022-10-08T20:23:36.935Z,21.15
2022-10-08T20:26:10.307Z,20.93
2022-10-08T20:28:38.690Z,22.15
2022-10-08T20:31:12.130Z,21.45
2022-10-08T20:33:41.647Z,21.38
2022-10-08T20:36:10.835Z,22.67
2022-10-08T20:38:40.633Z,22.25
2022-10-08T20:41:09.474Z,22.08
2022-10-08T20:43:39.151Z,21.15
2022-10-08T20:46:08.949Z,21.95
2022-10-08T20:48:38.286Z,22.83
2022-10-08T20:51:08.645Z,20.98
2022-10-08T20:53:36.936Z,21.70
2022-10-08T20:56:08.400Z,21.77
2022-10-08T20:58:37.507Z,22.35
2022-10-08T21:01:08.475Z,22.10
2022-10-08T21:03:37.211Z,22.42
2022-10-08T21:06:07.469Z,22.58
2022-10-08T21:08:38.026Z,21.90
2022-10-08T21:11:13.215Z,21.73
2022-10-08T21:13:41.675Z,21.55
2022-10-08T21:16:12.431Z,21.77
2022-10-08T21:18:40.755Z,22.13
2022-10-08T21:21:10.203Z,21.92
2022-10-08T21:23:39.025Z,22.40
2022-10-08T21:26:10.657Z,21.38
2022-10-08T21:28:39.172Z,21.88
2022-10-08T21:31:08.412Z,20.92
2022-10-08T21:33:37.310Z,23.00
2022-10-08T21:36:05.838Z,22.10
2022-10-08T21:38:36.398Z,21.52
2022-10-08T21:41:12.091Z,22.58
2022-10-08T21:43:43.278Z,21.48
2022-10-08T21:46:13.513Z,18.45
2022-10-08T21:48:42.153Z,19.45
2022-10-08T21:51:11.425Z,18.25
2022-10-08T21:53:41.171Z,18.30
2022-10-08T21:56:11.715Z,17.60
2022-10-08T21:58:43.787Z,17.23
2022-10-08T22:01:21.905Z,15.07
2022-10-08T22:03:50.393Z,14.02
2022-10-08T22:06:18.799Z,12.27
2022-10-08T22:08:46.933Z,11.52
2022-10-08T22:11:15.017Z,11.90
2022-10-08T22:13:44.957Z,10.27
2022-10-08T22:16:14.656Z,9.95
2022-10-08T22:18:43.600Z,11.18
2022-10-08T22:21:14.616Z,9.57
2022-10-08T22:23:43.026Z,8.13
2022-10-08T22:26:12.997Z,7.10
2022-10-08T22:28:42.235Z,6.53
2022-10-08T22:31:13.294Z,5.25
2022-10-08T22:33:41.841Z,5.38
2022-10-08T22:36:11.780Z,5.25
2022-10-08T22:38:41.147Z,4.30
2022-10-08T22:41:11.707Z,4.22
2022-10-08T22:43:41.247Z,3.92
2022-10-08T22:46:12.776Z,3.90
2022-10-08T22:48:41.584Z,3.72
2022-10-08T22:51:12.555Z,4.35
2022-10-08T22:53:40.802Z,3.47
2022-10-08T22:56:12.562Z,3.40
2022-10-08T22:58:40.706Z,3.25
2022-10-08T23:01:11.128Z,3.22
2022-10-08T23:03:41.526Z,3.53
2022-10-08T23:06:14.092Z,3.40
2022-10-08T23:08:42.774Z,3.25
2022-10-08T23:11:11.308Z,3.13
2022-10-08T23:13:39.525Z,3.70
2022-10-08T23:16:09.916Z,2.97
2022-10-08T23:18:41.400Z,3.15
2022-10-08T23:23:41.024Z,2.70
2022-10-08T23:26:09.862Z,3.30
2022-10-08T23:28:39.066Z,2.90
2022-10-08T23:31:08.716Z,3.00
2022-10-08T23:33:38.505Z,4.05
2022-10-08T23:36:10.178Z,7.63
2022-10-08T23:38:38.534Z,5.15
2022-10-08T23:41:08.406Z,3.22
2022-10-08T23:43:37.913Z,2.55
2022-10-08T23:46:07.060Z,2.22
2022-10-08T23:48:35.675Z,2.58
2022-10-08T23:51:04.624Z,2.67
2022-10-08T23:53:34.738Z,3.20
2022-10-08T23:56:03.134Z,2.40
2022-10-08T23:58:31.574Z,2.70
